createdAt,value
2017-09-22T00:00:26.374Z,98439.91
2017-09-22T00:02:53.887Z,98441.84
2017-09-22T00:05:21.388Z,98442.94
2017-09-22T00:07:48.918Z,98436.17
2017-09-22T00:10:16.414Z,98445.22
2017-09-22T00:12:43.923Z,98444.38
2017-09-22T00:15:11.455Z,98442.91
2017-09-22T00:17:38.966Z,98438.82
2017-09-22T00:20:06.489Z,98438.47
2017-09-22T00:22:33.991Z,98440.56
2017-09-22T00:25:01.501Z,98434.69
2017-09-22T00:27:29.005Z,98435.25
2017-09-22T00:29:56.523Z,98434.50
2017-09-22T00:32:24.018Z,98431.08
2017-09-22T00:34:51.532Z,98435.29
2017-09-22T00:37:19.041Z,98432.97
2017-09-22T00:39:46.548Z,98431.58
2017-09-22T00:42:14.065Z,98434.49
2017-09-22T00:44:41.593Z,98429.74
2017-09-22T00:47:09.108Z,98427.28
2017-09-22T00:49:36.625Z,98420.91
2017-09-22T00:52:04.151Z,98425.02
2017-09-22T00:54:31.655Z,98426.14
2017-09-22T00:56:59.172Z,98423.61
2017-09-22T00:59:26.685Z,98426.52
2017-09-22T01:01:54.196Z,98428.80
2017-09-22T01:04:21.701Z,98429.51
2017-09-22T01:06:49.215Z,98423.02
2017-09-22T01:09:16.716Z,98423.58
2017-09-22T01:11:44.215Z,98421.12
2017-09-22T01:14:11.719Z,98424.59
2017-09-22T01:16:39.219Z,98424.25
2017-09-22T01:19:06.722Z,98419.49
2017-09-22T01:21:34.230Z,98423.10
2017-09-22T01:24:01.757Z,98420.06
2017-09-22T01:26:29.257Z,98420.18
2017-09-22T01:28:57.262Z,98414.91
2017-09-22T01:31:24.770Z,98418.02
2017-09-22T01:33:52.270Z,98421.15
2017-09-22T01:36:20.580Z,98417.19
2017-09-22T01:38:48.076Z,98413.96
2017-09-22T01:41:15.588Z,98415.44
2017-09-22T01:43:43.102Z,98417.73
2017-09-22T01:46:10.606Z,98411.92
2017-09-22T01:48:38.125Z,98418.73
2017-09-22T01:51:05.624Z,98413.70
2017-09-22T01:53:33.133Z,98410.20
2017-09-22T01:56:00.638Z,98409.13
2017-09-22T01:58:28.129Z,98409.41
2017-09-22T02:00:55.655Z,98413.31
2017-09-22T02:03:23.176Z,98417.65
2017-09-22T02:05:50.674Z,98414.03
2017-09-22T02:08:18.174Z,98409.25
2017-09-22T02:10:45.681Z,98410.42
2017-09-22T02:13:13.187Z,98401.13
2017-09-22T02:15:40.686Z,98402.73
2017-09-22T02:18:08.188Z,98398.94
2017-09-22T02:20:35.717Z,98405.50
2017-09-22T02:23:03.276Z,98401.06
2017-09-22T02:25:30.836Z,98405.14
2017-09-22T02:27:58.341Z,98400.91
2017-09-22T02:30:25.844Z,98394.47
2017-09-22T02:32:53.367Z,98396.43
2017-09-22T02:35:20.890Z,98399.61
2017-09-22T02:37:48.404Z,98401.70
2017-09-22T02:40:15.915Z,98398.01
2017-09-22T02:42:43.428Z,98397.12
2017-09-22T02:45:10.963Z,98397.86
2017-09-22T02:47:38.473Z,98388.17
2017-09-22T02:50:05.975Z,98397.29
2017-09-22T02:52:33.488Z,98395.19
2017-09-22T02:55:01.009Z,98395.73
2017-09-22T02:57:28.510Z,98394.85
2017-09-22T02:59:56.007Z,98397.70
2017-09-22T03:02:23.519Z,98401.02
2017-09-22T03:04:51.020Z,98399.16
2017-09-22T03:07:18.535Z,98401.20
2017-09-22T03:09:46.057Z,98402.30
2017-09-22T03:12:13.556Z,98401.33
2017-09-22T03:14:41.056Z,98403.27
2017-09-22T03:17:08.550Z,98405.53
2017-09-22T03:19:36.062Z,98405.95
2017-09-22T03:22:03.569Z,98406.28
2017-09-22T03:24:31.721Z,98401.53
2017-09-22T03:26:59.223Z,98402.67
2017-09-22T03:29:26.743Z,98401.81
2017-09-22T03:31:54.245Z,98397.36
2017-09-22T03:34:21.738Z,98402.34
2017-09-22T03:36:49.264Z,98398.55
2017-09-22T03:39:16.771Z,98403.62
2017-09-22T03:41:44.287Z,98398.46
2017-09-22T03:44:11.782Z,98402.11
2017-09-22T03:46:39.291Z,98404.64
2017-09-22T03:49:06.812Z,98395.97
2017-09-22T03:51:34.322Z,98395.03
2017-09-22T03:54:01.832Z,98400.86
2017-09-22T03:56:29.335Z,98397.56
2017-09-22T03:58:56.863Z,98396.23
2017-09-22T04:01:24.363Z,98393.78
2017-09-22T04:03:51.871Z,98395.41
2017-09-22T04:06:19.375Z,98399.59
2017-09-22T04:08:46.874Z,98399.66
2017-09-22T04:11:14.379Z,98401.20
2017-09-22T04:13:41.899Z,98403.06
2017-09-22T04:16:09.418Z,98404.03
2017-09-22T04:18:36.923Z,98402.42
2017-09-22T04:21:04.444Z,98398.88
2017-09-22T04:23:31.972Z,98409.39
2017-09-22T04:25:59.467Z,98405.17
2017-09-22T04:28:26.975Z,98399.64
2017-09-22T04:30:54.518Z,98398.18
2017-09-22T04:33:22.045Z,98403.09
2017-09-22T04:35:49.571Z,98396.72
2017-09-22T04:38:17.097Z,98394.10
2017-09-22T04:40:45.544Z,98396.28
2017-09-22T04:43:13.642Z,98401.61
2017-09-22T04:45:41.160Z,98407.02
2017-09-22T04:48:08.678Z,98408.08
2017-09-22T04:50:36.178Z,98404.84
2017-09-22T04:53:03.703Z,98403.90
2017-09-22T04:55:31.222Z,98397.98
2017-09-22T04:57:58.891Z,98401.59
2017-09-22T05:00:26.408Z,98404.47
2017-09-22T05:02:53.931Z,98405.61
2017-09-22T05:05:21.444Z,98414.31
2017-09-22T05:07:48.959Z,98410.19
2017-09-22T05:10:16.482Z,98421.00
2017-09-22T05:12:43.994Z,98422.83
2017-09-22T05:15:11.491Z,98417.50
2017-09-22T05:17:39.017Z,98422.16
2017-09-22T05:20:06.519Z,98428.66
2017-09-22T05:22:34.037Z,98422.97
2017-09-22T05:25:01.536Z,98424.20
2017-09-22T05:27:29.043Z,98423.50
2017-09-22T05:29:56.588Z,98432.23
2017-09-22T05:32:24.119Z,98427.25
2017-09-22T05:34:51.636Z,98420.73
2017-09-22T05:37:19.138Z,98430.84
2017-09-22T05:39:46.667Z,98426.36
2017-09-22T05:42:14.172Z,98424.73
2017-09-22T05:44:41.815Z,98428.52
2017-09-22T05:47:09.353Z,98427.72
2017-09-22T05:49:36.867Z,98433.81
2017-09-22T05:52:04.382Z,98432.67
2017-09-22T05:54:31.883Z,98439.23
2017-09-22T05:56:59.433Z,98439.42
2017-09-22T05:59:26.944Z,98433.78
2017-09-22T06:01:54.463Z,98435.62
2017-09-22T06:04:21.984Z,98433.94
2017-09-22T06:06:49.593Z,98430.75
2017-09-22T06:09:17.087Z,98438.05
2017-09-22T06:11:44.608Z,98438.90
2017-09-22T06:14:12.149Z,98436.05
2017-09-22T06:16:39.655Z,98445.09
2017-09-22T06:19:07.207Z,98442.05
2017-09-22T06:21:34.707Z,98446.08
2017-09-22T06:24:02.218Z,98452.61
2017-09-22T06:26:29.720Z,98451.00
2017-09-22T06:28:57.350Z,98455.31
2017-09-22T06:31:24.851Z,98449.89
2017-09-22T06:33:52.368Z,98453.89
2017-09-22T06:36:19.892Z,98455.41
2017-09-22T06:38:47.400Z,98454.73
2017-09-22T06:41:14.923Z,98451.28
2017-09-22T06:43:42.417Z,98450.42
2017-09-22T06:46:09.953Z,98451.09
2017-09-22T06:48:37.454Z,98443.68
2017-09-22T06:51:04.974Z,98451.95
2017-09-22T06:53:32.481Z,98448.16
2017-09-22T06:56:00.008Z,98448.15
2017-09-22T06:58:27.532Z,98452.02
2017-09-22T07:00:55.058Z,98451.38
2017-09-22T07:03:22.554Z,98456.95
2017-09-22T07:05:50.100Z,98452.11
2017-09-22T07:08:17.608Z,98466.49
2017-09-22T07:10:45.121Z,98471.23
2017-09-22T07:13:12.634Z,98467.13
2017-09-22T07:15:40.147Z,98469.44
2017-09-22T07:18:07.651Z,98475.78
2017-09-22T07:20:35.171Z,98478.22
2017-09-22T07:23:03.470Z,98475.99
2017-09-22T07:25:31.032Z,98475.61
2017-09-22T07:27:58.552Z,98472.25
2017-09-22T07:30:26.065Z,98473.52
2017-09-22T07:32:53.579Z,98472.17
2017-09-22T07:35:21.107Z,98475.88
2017-09-22T07:37:48.655Z,98480.73
2017-09-22T07:40:16.174Z,98487.91
2017-09-22T07:42:44.602Z,98486.52
2017-09-22T07:45:12.123Z,98483.47
2017-09-22T07:47:39.638Z,98489.33
2017-09-22T07:50:07.144Z,98490.36
2017-09-22T07:52:34.654Z,98493.72
2017-09-22T07:55:02.212Z,98493.31
2017-09-22T07:57:36.889Z,98492.05
2017-09-22T08:00:04.420Z,98492.22
2017-09-22T08:02:32.127Z,98486.18
2017-09-22T08:04:59.640Z,98482.55
2017-09-22T08:07:27.160Z,98480.62
2017-09-22T08:09:54.682Z,98485.43
2017-09-22T08:12:22.191Z,98486.34
2017-09-22T08:14:49.807Z,98488.52
2017-09-22T08:17:17.326Z,98487.64
2017-09-22T08:19:45.324Z,98486.48
2017-09-22T08:22:12.828Z,98490.45
2017-09-22T08:24:40.353Z,98490.44
2017-09-22T08:27:07.866Z,98493.70
2017-09-22T08:29:35.383Z,98497.23
2017-09-22T08:32:02.895Z,98493.22
2017-09-22T08:34:30.408Z,98493.14
2017-09-22T08:36:57.996Z,98491.89
2017-09-22T08:39:28.255Z,98486.58
2017-09-22T08:41:55.803Z,98486.70
2017-09-22T08:44:23.319Z,98485.20
2017-09-22T08:46:50.829Z,98484.23
2017-09-22T08:49:18.406Z,98481.91
2017-09-22T08:51:45.970Z,98484.81
2017-09-22T08:54:13.491Z,98485.23
2017-09-22T08:56:40.999Z,98488.28
2017-09-22T08:59:08.518Z,98489.20
2017-09-22T09:01:36.016Z,98481.45
2017-09-22T09:04:03.523Z,98481.86
2017-09-22T09:06:32.205Z,98482.93
2017-09-22T09:08:59.723Z,98474.06
2017-09-22T09:11:27.240Z,98479.09
2017-09-22T09:13:54.764Z,98474.47
2017-09-22T09:16:22.263Z,98471.58
2017-09-22T09:18:49.816Z,98473.47
2017-09-22T09:21:17.322Z,98474.45
2017-09-22T09:23:44.835Z,98467.36
2017-09-22T09:26:12.335Z,98466.33
2017-09-22T09:28:39.851Z,98460.85
2017-09-22T09:31:08.123Z,98467.53
2017-09-22T09:33:35.646Z,98467.52
2017-09-22T09:36:03.838Z,98468.03
2017-09-22T09:38:31.380Z,98471.88
2017-09-22T09:40:58.882Z,98460.09
2017-09-22T09:43:26.394Z,98458.67
2017-09-22T09:45:53.908Z,98457.98
2017-09-22T09:48:21.422Z,98459.47
2017-09-22T09:50:48.939Z,98463.17
2017-09-22T09:53:16.443Z,98461.47
2017-09-22T09:55:43.965Z,98461.53
2017-09-22T09:58:11.470Z,98462.10
2017-09-22T10:00:40.054Z,98455.05
2017-09-22T10:03:07.578Z,98457.66
2017-09-22T10:05:35.096Z,98454.05
2017-09-22T10:08:02.607Z,98461.11
2017-09-22T10:10:30.122Z,98451.45
2017-09-22T10:12:57.646Z,98458.16
2017-09-22T10:15:25.156Z,98455.49
2017-09-22T10:17:52.692Z,98460.63
2017-09-22T10:20:20.211Z,98450.05
2017-09-22T10:22:47.791Z,98454.55
2017-09-22T10:25:15.292Z,98455.00
2017-09-22T10:27:42.809Z,98453.33
2017-09-22T10:30:10.323Z,98460.64
2017-09-22T10:32:37.843Z,98457.72
2017-09-22T10:35:05.347Z,98462.52
2017-09-22T10:37:32.874Z,98455.45
2017-09-22T10:40:00.379Z,98456.16
2017-09-22T10:42:27.935Z,98452.88
2017-09-22T10:44:55.453Z,98455.06
2017-09-22T10:47:23.019Z,98454.63
2017-09-22T10:49:50.523Z,98456.36
2017-09-22T10:52:18.050Z,98454.14
2017-09-22T10:54:45.596Z,98449.94
2017-09-22T10:57:13.115Z,98449.91
2017-09-22T10:59:40.886Z,98447.55
2017-09-22T11:02:08.424Z,98445.84
2017-09-22T11:04:35.948Z,98447.09
2017-09-22T11:07:03.458Z,98447.89
2017-09-22T11:09:30.986Z,98443.78
2017-09-22T11:11:58.491Z,98439.73
2017-09-22T11:14:26.009Z,98448.57
2017-09-22T11:16:53.515Z,98447.64
2017-09-22T11:19:21.047Z,98443.55
2017-09-22T11:21:48.574Z,98440.11
2017-09-22T11:24:16.103Z,98432.03
2017-09-22T11:26:43.651Z,98434.37
2017-09-22T11:29:11.177Z,98426.16
2017-09-22T11:31:38.153Z,98428.66
2017-09-22T11:34:05.242Z,98433.31
2017-09-22T11:36:32.767Z,98433.91
2017-09-22T11:39:00.280Z,98437.53
2017-09-22T11:41:27.782Z,98422.58
2017-09-22T11:43:55.284Z,98420.62
2017-09-22T11:46:22.812Z,98420.59
2017-09-22T11:48:50.898Z,98414.57
2017-09-22T11:51:18.449Z,98413.50
2017-09-22T11:53:46.001Z,98417.25
2017-09-22T11:56:13.553Z,98416.84
2017-09-22T11:58:41.084Z,98411.94
2017-09-22T12:01:08.623Z,98411.03
2017-09-22T12:03:36.144Z,98411.59
2017-09-22T12:06:03.663Z,98408.27
2017-09-22T12:08:31.169Z,98409.66
2017-09-22T12:10:58.674Z,98410.59
2017-09-22T12:13:26.197Z,98413.13
2017-09-22T12:15:53.729Z,98413.52
2017-09-22T12:18:21.256Z,98399.41
2017-09-22T12:20:48.763Z,98402.37
2017-09-22T12:23:16.298Z,98406.52
2017-09-22T12:25:43.819Z,98408.36
2017-09-22T12:28:11.335Z,98400.44
2017-09-22T12:30:39.431Z,98404.36
2017-09-22T12:33:07.535Z,98396.88
2017-09-22T12:35:35.108Z,98403.13
2017-09-22T12:38:02.707Z,98399.05
2017-09-22T12:40:30.227Z,98402.49
2017-09-22T12:42:57.828Z,98400.05
2017-09-22T12:45:25.351Z,98401.14
2017-09-22T12:47:52.859Z,98403.66
2017-09-22T12:50:20.362Z,98401.84
2017-09-22T12:55:24.716Z,98405.92
2017-09-22T12:57:52.219Z,98403.88
2017-09-22T13:00:19.758Z,98401.95
2017-09-22T13:02:47.276Z,98398.91
2017-09-22T13:05:14.866Z,98405.95
2017-09-22T13:07:42.372Z,98391.20
2017-09-22T13:10:09.908Z,98409.06
2017-09-22T13:12:37.486Z,98405.66
2017-09-22T13:15:05.047Z,98409.61
2017-09-22T13:17:32.560Z,98410.52
2017-09-22T13:20:00.100Z,98415.68
2017-09-22T13:22:27.613Z,98414.64
2017-09-22T13:24:55.152Z,98410.23
2017-09-22T13:27:22.700Z,98405.34
2017-09-22T13:29:51.898Z,98403.58
2017-09-22T13:32:19.445Z,98404.98
2017-09-22T13:34:46.973Z,98400.92
2017-09-22T13:37:14.638Z,98403.30
2017-09-22T13:39:42.177Z,98403.22
2017-09-22T13:42:11.287Z,98401.11
2017-09-22T13:44:38.785Z,98404.02
2017-09-22T13:47:11.756Z,98401.34
2017-09-22T13:49:39.275Z,98404.23
2017-09-22T13:52:06.809Z,98400.37
2017-09-22T13:54:34.344Z,98406.23
2017-09-22T13:57:01.851Z,98399.95
2017-09-22T13:59:30.381Z,98402.98
2017-09-22T14:01:57.984Z,98404.69
2017-09-22T14:04:25.490Z,98393.52
2017-09-22T14:06:53.019Z,98406.72
2017-09-22T14:09:20.568Z,98397.14
2017-09-22T14:11:48.078Z,98398.76
2017-09-22T14:14:15.584Z,98393.16
2017-09-22T14:16:43.110Z,98387.17
2017-09-22T14:19:10.722Z,98389.10
2017-09-22T14:21:38.267Z,98394.70
2017-09-22T14:24:08.002Z,98391.63
2017-09-22T14:26:35.630Z,98387.02
2017-09-22T14:29:03.159Z,98392.02
2017-09-22T14:31:30.697Z,98394.30
2017-09-22T14:33:58.261Z,98392.78
2017-09-22T14:36:25.766Z,98394.14
2017-09-22T14:38:53.302Z,98386.28
2017-09-22T14:41:20.820Z,98388.67
2017-09-22T14:43:48.332Z,98386.54
2017-09-22T14:46:15.838Z,98392.20
2017-09-22T14:48:43.371Z,98391.07
2017-09-22T14:51:10.877Z,98390.06
2017-09-22T14:53:38.392Z,98395.16
2017-09-22T14:56:05.921Z,98398.88
2017-09-22T14:58:33.444Z,98398.59
2017-09-22T15:01:00.968Z,98405.01
2017-09-22T15:03:28.500Z,98398.68
2017-09-22T15:05:56.011Z,98398.23
2017-09-22T15:08:23.560Z,98397.78
2017-09-22T15:10:51.090Z,98399.06
2017-09-22T15:13:18.655Z,98403.76
2017-09-22T15:15:46.238Z,98403.77
2017-09-22T15:18:13.756Z,98404.05
2017-09-22T15:20:41.291Z,98416.28
2017-09-22T15:23:08.799Z,98415.12
2017-09-22T15:25:36.305Z,98416.86
2017-09-22T15:28:03.832Z,98414.66
2017-09-22T15:30:31.344Z,98416.70
2017-09-22T15:32:58.864Z,98418.63
2017-09-22T15:35:26.367Z,98416.91
2017-09-22T15:37:53.874Z,98412.52
2017-09-22T15:40:21.384Z,98424.46
2017-09-22T15:42:48.912Z,98419.33
2017-09-22T15:45:16.508Z,98417.09
2017-09-22T15:47:44.026Z,98420.45
2017-09-22T15:50:11.549Z,98418.27
2017-09-22T15:52:39.069Z,98424.91
2017-09-22T15:55:06.598Z,98428.06
2017-09-22T15:57:34.148Z,98425.66
2017-09-22T16:00:01.676Z,98429.74
2017-09-22T16:02:29.220Z,98432.73
2017-09-22T16:04:56.759Z,98429.58
2017-09-22T16:07:24.266Z,98432.42
2017-09-22T16:09:51.830Z,98432.69
2017-09-22T16:12:19.489Z,98429.77
2017-09-22T16:14:47.868Z,98431.67
2017-09-22T16:17:15.427Z,98427.41
2017-09-22T16:19:43.022Z,98421.69
2017-09-22T16:22:10.565Z,98425.05
2017-09-22T16:24:38.350Z,98418.44
2017-09-22T16:27:05.863Z,98423.37
2017-09-22T16:29:33.404Z,98421.48
2017-09-22T16:32:00.933Z,98427.24
2017-09-22T16:34:28.482Z,98429.70
2017-09-22T16:36:56.000Z,98427.38
2017-09-22T16:39:23.512Z,98431.63
2017-09-22T16:41:51.043Z,98423.80
2017-09-22T16:44:18.568Z,98427.09
2017-09-22T16:46:46.113Z,98427.73
2017-09-22T16:49:13.634Z,98431.98
2017-09-22T16:51:41.279Z,98436.81
2017-09-22T16:54:08.816Z,98432.05
2017-09-22T16:56:37.339Z,98436.16
2017-09-22T16:59:04.877Z,98433.28
2017-09-22T17:01:32.393Z,98438.74
2017-09-22T17:03:59.908Z,98436.53
2017-09-22T17:06:27.421Z,98434.11
2017-09-22T17:08:54.948Z,98436.30
2017-09-22T17:11:22.493Z,98440.78
2017-09-22T17:13:50.018Z,98442.11
2017-09-22T17:16:17.570Z,98444.98
2017-09-22T17:18:45.107Z,98449.42
2017-09-22T17:21:12.636Z,98455.63
2017-09-22T17:23:40.161Z,98462.63
2017-09-22T17:26:07.674Z,98464.27
2017-09-22T17:28:35.207Z,98467.99
2017-09-22T17:31:02.789Z,98468.17
2017-09-22T17:33:30.316Z,98472.72
2017-09-22T17:35:57.830Z,98471.25
2017-09-22T17:38:25.357Z,98470.95
2017-09-22T17:40:52.885Z,98472.80
2017-09-22T17:43:20.421Z,98478.46
2017-09-22T17:45:47.916Z,98479.94
2017-09-22T17:48:15.427Z,98486.27
2017-09-22T17:50:42.965Z,98484.50
2017-09-22T17:53:10.508Z,98488.94
2017-09-22T17:55:38.075Z,98492.87
2017-09-22T17:58:05.648Z,98487.94
2017-09-22T18:00:33.155Z,98489.11
2017-09-22T18:03:00.708Z,98486.48
2017-09-22T18:05:28.246Z,98483.38
2017-09-22T18:07:55.795Z,98492.52
2017-09-22T18:10:23.343Z,98501.97
2017-09-22T18:12:50.884Z,98504.38
2017-09-22T18:15:18.390Z,98506.33
2017-09-22T18:17:45.947Z,98502.80
2017-09-22T18:20:13.511Z,98508.32
2017-09-22T18:22:41.083Z,98512.00
2017-09-22T18:25:08.600Z,98518.77
2017-09-22T18:27:36.126Z,98517.25
2017-09-22T18:30:03.641Z,98515.70
2017-09-22T18:32:31.145Z,98526.03
2017-09-22T18:34:58.654Z,98530.03
2017-09-22T18:37:26.176Z,98531.17
2017-09-22T18:39:53.688Z,98522.61
2017-09-22T18:42:21.208Z,98524.03
2017-09-22T18:44:48.766Z,98522.73
2017-09-22T18:47:16.301Z,98525.04
2017-09-22T18:49:43.827Z,98530.37
2017-09-22T18:52:11.357Z,98537.42
2017-09-22T18:54:38.900Z,98538.41
2017-09-22T18:57:06.420Z,98540.24
2017-09-22T18:59:33.956Z,98543.76
2017-09-22T19:02:01.596Z,98540.38
2017-09-22T19:04:29.276Z,98542.86
2017-09-22T19:06:57.329Z,98549.88
2017-09-22T19:09:24.904Z,98543.28
2017-09-22T19:11:52.449Z,98551.20
2017-09-22T19:14:20.028Z,98551.97
2017-09-22T19:16:47.578Z,98551.16
2017-09-22T19:19:15.094Z,98555.05
2017-09-22T19:21:42.636Z,98547.14
2017-09-22T19:24:10.186Z,98547.86
2017-09-22T19:26:37.796Z,98552.92
2017-09-22T19:29:05.325Z,98558.98
2017-09-22T19:31:32.864Z,98565.40
2017-09-22T19:34:00.393Z,98565.03
2017-09-22T19:36:27.921Z,98564.68
2017-09-22T19:38:55.434Z,98566.48
2017-09-22T19:41:22.957Z,98568.50
2017-09-22T19:43:50.556Z,98566.84
2017-09-22T19:46:18.095Z,98572.25
2017-09-22T19:48:45.634Z,98563.67
2017-09-22T19:51:13.182Z,98571.88
2017-09-22T19:53:42.361Z,98573.77
2017-09-22T19:56:09.913Z,98573.70
2017-09-22T19:58:37.450Z,98578.27
2017-09-22T20:01:04.974Z,98577.58
2017-09-22T20:03:32.479Z,98577.69
2017-09-22T20:06:00.031Z,98583.41
2017-09-22T20:08:27.573Z,98582.76
2017-09-22T20:10:55.158Z,98580.70
2017-09-22T20:13:22.725Z,98585.36
2017-09-22T20:15:50.258Z,98579.55
2017-09-22T20:18:17.834Z,98588.42
2017-09-22T20:20:45.360Z,98587.51
2017-09-22T20:23:12.943Z,98588.64
2017-09-22T20:25:40.508Z,98594.87
2017-09-22T20:28:08.067Z,98593.83
2017-09-22T20:30:35.570Z,98598.50
2017-09-22T20:33:03.104Z,98598.54
2017-09-22T20:35:30.636Z,98607.09
2017-09-22T20:37:58.179Z,98612.22
2017-09-22T20:40:25.748Z,98614.70
2017-09-22T20:42:53.276Z,98617.83
2017-09-22T20:45:20.813Z,98620.16
2017-09-22T20:47:48.339Z,98617.00
2017-09-22T20:50:15.888Z,98618.14
2017-09-22T20:52:43.419Z,98621.18
2017-09-22T20:55:14.776Z,98620.58
2017-09-22T20:57:43.143Z,98624.22
2017-09-22T21:00:11.840Z,98626.54
2017-09-22T21:02:39.374Z,98625.49
2017-09-22T21:05:06.904Z,98627.80
2017-09-22T21:07:34.517Z,98623.45
2017-09-22T21:10:02.024Z,98617.04
2017-09-22T21:12:29.568Z,98620.67
2017-09-22T21:14:57.091Z,98624.95
2017-09-22T21:17:25.591Z,98624.31
2017-09-22T21:19:53.155Z,98623.90
2017-09-22T21:22:20.696Z,98625.17
2017-09-22T21:24:49.093Z,98618.78
2017-09-22T21:27:16.633Z,98617.84
2017-09-22T21:29:44.195Z,98615.90
2017-09-22T21:32:11.741Z,98612.75
2017-09-22T21:34:39.268Z,98615.38
2017-09-22T21:37:06.869Z,98624.01
2017-09-22T21:39:34.369Z,98618.42
2017-09-22T21:42:01.879Z,98623.88
2017-09-22T21:44:29.396Z,98628.99
2017-09-22T21:46:56.919Z,98630.27
2017-09-22T21:49:24.459Z,98638.17
2017-09-22T21:51:51.992Z,98636.02
2017-09-22T21:54:19.518Z,98642.14
2017-09-22T21:56:47.201Z,98633.89
2017-09-22T21:59:14.868Z,98637.05
2017-09-22T22:01:42.441Z,98641.72
2017-09-22T22:04:15.746Z,98640.61
2017-09-22T22:06:48.932Z,98639.13
2017-09-22T22:09:16.482Z,98643.18
2017-09-22T22:11:44.056Z,98640.66
2017-09-22T22:14:11.671Z,98633.30
2017-09-22T22:16:39.223Z,98640.59
2017-09-22T22:19:07.732Z,98631.89
2017-09-22T22:21:35.317Z,98642.39
2017-09-22T22:24:03.035Z,98637.27
2017-09-22T22:26:30.574Z,98634.98
2017-09-22T22:28:58.157Z,98638.18
2017-09-22T22:31:25.854Z,98648.41
2017-09-22T22:33:53.394Z,98648.55
2017-09-22T22:36:26.880Z,98647.89
2017-09-22T22:38:54.449Z,98655.45
2017-09-22T22:41:22.007Z,98645.82
2017-09-22T22:43:49.572Z,98645.75
2017-09-22T22:46:17.114Z,98637.98
2017-09-22T22:48:44.676Z,98645.64
2017-09-22T22:51:12.237Z,98641.28
2017-09-22T22:53:39.812Z,98636.77
2017-09-22T22:56:07.463Z,98646.63
2017-09-22T22:58:35.049Z,98641.27
2017-09-22T23:01:02.609Z,98644.98
2017-09-22T23:03:30.261Z,98640.22
2017-09-22T23:05:57.826Z,98637.94
2017-09-22T23:08:25.381Z,98636.18
2017-09-22T23:10:52.933Z,98642.38
2017-09-22T23:13:20.489Z,98638.34
2017-09-22T23:15:48.157Z,98644.04
2017-09-22T23:18:15.705Z,98652.67
2017-09-22T23:20:43.278Z,98646.68
2017-09-22T23:23:10.901Z,98651.53
2017-09-22T23:25:38.497Z,98654.33
2017-09-22T23:28:06.054Z,98654.77
2017-09-22T23:30:33.606Z,98650.22
2017-09-22T23:33:01.171Z,98650.90
2017-09-22T23:35:28.739Z,98654.13
2017-09-22T23:37:56.299Z,98659.03
2017-09-22T23:40:23.867Z,98663.11
2017-09-22T23:42:51.426Z,98665.66
2017-09-22T23:45:18.988Z,98662.47
2017-09-22T23:47:46.548Z,98663.66
2017-09-22T23:50:14.090Z,98663.07
2017-09-22T23:52:41.711Z,98658.05
2017-09-22T23:55:09.253Z,98667.58
2017-09-22T23:57:36.812Z,98659.33
